Wednesday, September 19, 2018, 3:26 PM EDT
Back to Local

KJYO, Leesburg / Godfrey

Location: Leesburg, VA, United States Lat: 39.083
Local Time: 3:26 PM EDT (19:26 GMT) Lon: -77.567
Time Zone: US/Eastern Elev: 390 ft

Show me the last for .
Show Coded

Time T Td Feel RH Dir Speed Gust Alt SLP Vis Weather Sky Remarks
2018-09-19 14:55 86 70 91 58 350° 10 16 29.96 - 10 SCT037 None
2018-09-19 14:35 86 70 91 58 350° 12 - 29.97 - 10 SCT037 BKN042 None
2018-09-19 14:15 86 72 92 62 340° 16 22 29.97 - 10 SCT037 BKN042 None
2018-09-19 13:55 86 72 92 62 330° 15 18 29.97 - 10 SCT037 None
2018-09-19 13:35 84 72 90 66 330° 14 22 29.97 - 10 BKN037 None
2018-09-19 13:15 84 70 89 62 340° 14 22 29.97 - 10 SCT035 None
2018-09-19 12:55 82 70 87 65 350° 13 18 29.98 - 10 BKN033 None
2018-09-19 12:35 82 70 87 65 350° 13 22 29.98 - 10 BKN031 SCT037 None
2018-09-19 12:15 82 70 87 65 10° 14 20 29.98 - 10 SCT031 None
2018-09-19 11:55 82 72 88 69 340° 14 21 29.98 - 10 SCT028 SCT035 None
2018-09-19 11:35 81 70 85 69 10° 8 18 29.98 - 10 CLR None
2018-09-19 11:15 81 72 85 74 10° 8 - 29.98 - 10 SCT026 None
2018-09-19 10:55 79 70 83 74 10° 7 16 29.98 - 10 CLR None
2018-09-19 10:35 79 70 83 74 10° 9 - 29.98 - 10 CLR None
2018-09-19 10:15 77 70 81 78 10° 8 16 29.97 - 10 CLR None
2018-09-19 09:55 77 70 81 78 350° 12 - 29.97 - 10 CLR None
2018-09-19 09:35 75 70 79 83 350° 9 - 29.97 - 10 CLR None
2018-09-19 09:15 73 70 77 88 360° 6 - 29.96 - 10 CLR None
2018-09-19 08:55 72 70 76 94 350° 5 - 29.96 - 10 CLR None
2018-09-19 08:35 72 68 76 88 350° 5 - 29.95 - 10 CLR None
2018-09-19 08:15 70 68 - 94 320° 6 - 29.95 - 10 CLR None
2018-09-19 07:55 70 68 - 94 310° 6 - 29.95 - 10 CLR None
2018-09-19 07:35 68 68 - 100 300° 6 - 29.94 - 10 CLR None
2018-09-19 07:15 66 66 - 100 290° 5 - 29.93 - 10 CLR None
2018-09-19 06:55 68 66 - 93 270° 3 - 29.92 - 10 CLR None
2018-09-19 06:35 68 66 - 93 320° 3 - 29.92 - 10 CLR None
2018-09-19 06:15 70 68 - 94 300° 8 - 29.91 - 10 CLR None
2018-09-19 05:55 68 68 - 100 280° 5 - 29.91 - 10 CLR None
2018-09-19 05:35 68 68 - 100 300° 5 - 29.90 - 10 CLR None
2018-09-19 05:15 70 68 - 94 320° 7 - 29.90 - 10 CLR None
2018-09-19 04:55 68 68 - 100 330° 9 - 29.90 - 10 CLR None
2018-09-19 04:35 70 68 - 94 340° 6 - 29.89 - 10 CLR None
2018-09-19 04:15 70 68 - 94 330° 8 - 29.89 - 10 CLR None
2018-09-19 03:55 70 68 - 94 - Calm - 29.89 - 10 CLR None
2018-09-19 03:35 68 68 - 100 - Calm - 29.89 - 10 CLR None
2018-09-19 03:15 72 68 76 88 340° 7 - 29.89 - 10 CLR None
2018-09-19 02:55 72 68 76 88 330° 5 - 29.89 - 10 CLR None
2018-09-19 02:35 72 68 76 88 330° 5 - 29.89 - 10 CLR None
2018-09-19 02:15 72 68 76 88 350° 7 - 29.88 - 10 CLR None
2018-09-19 01:55 72 68 76 88 350° 5 - 29.89 - 10 CLR None
2018-09-19 01:35 72 68 76 88 340° 6 - 29.89 - 10 CLR None
2018-09-19 01:15 72 68 76 88 330° 3 - 29.88 - 10 CLR None
2018-09-19 00:55 73 68 77 83 - Calm - 29.88 - 10 CLR None
2018-09-19 00:35 73 68 77 83 10° 5 - 29.88 - 10 CLR None
2018-09-19 00:15 73 68 77 83 340° 9 - 29.88 - 10 CLR None
2018-09-18 23:55 73 68 77 83 350° 7 - 29.88 - 10 CLR None
2018-09-18 23:35 73 68 77 83 360° 6 - 29.88 - 10 CLR None
2018-09-18 23:15 73 68 77 83 30° 6 - 29.88 - 10 CLR None
2018-09-18 22:55 73 68 77 83 10° 5 - 29.88 - 10 CLR None
2018-09-18 22:35 73 68 77 83 350° 6 - 29.88 - 10 CLR None
2018-09-18 22:15 73 68 77 83 350° 6 - 29.88 - 10 CLR None
2018-09-18 21:55 73 68 77 83 340° 9 - 29.88 - 10 CLR None
2018-09-18 21:35 73 68 77 83 330° 9 - 29.87 - 10 CLR None
2018-09-18 21:15 73 68 77 83 330° 9 - 29.87 - 10 CLR None
2018-09-18 20:55 73 68 77 83 320° 8 - 29.87 - 10 CLR None
2018-09-18 20:35 75 68 79 78 330° 7 - 29.87 - 10 CLR None
2018-09-18 20:15 75 68 79 78 330° 5 - 29.86 - 10 CLR None
2018-09-18 19:55 75 68 79 78 330° 6 - 29.86 - 10 CLR None
2018-09-18 19:35 77 68 80 73 340° 6 - 29.85 - 10 CLR None
2018-09-18 19:15 79 68 82 69 340° 8 - 29.85 - 10 CLR None
2018-09-18 18:55 81 68 84 65 340° 8 - 29.84 - 10 CLR None
2018-09-18 18:35 81 68 84 65 350° 12 16 29.84 - 10 CLR None
2018-09-18 18:15 82 70 87 65 - - - 29.83 - 10 SCT048 SCT050 None
2018-09-18 17:55 82 70 87 65 350° 12 21 29.83 - 10 SCT048 SCT050 None
2018-09-18 17:35 82 70 87 65 360° 10 18 29.82 - 10 SCT048 SCT055 None
2018-09-18 17:15 82 70 87 65 360° 14 20 29.81 - 10 SCT048 None
2018-09-18 16:55 82 70 87 65 360° 15 21 29.81 - 10 SCT049 None
2018-09-18 16:35 82 70 87 65 350° 14 23 29.80 - 10 SCT039 None
2018-09-18 16:15 82 70 87 65 360° 18 25 29.80 - 10 CLR None
2018-09-18 15:55 82 70 87 65 330° 13 20 29.80 - 10 CLR None
2018-09-18 15:35 81 68 84 65 10° 13 21 29.80 - 10 SCT037 None

Support USWX by starting your Amazon purchase here.